Time,TemperatureF,DewpointF,PressureIn,WindDirection,WindDirectionDegrees,WindSpeedMPH,WindSpeedGustMPH,Humidity,HourlyPrecipIn,Conditions,Clouds,dailyrainin,SoftwareType,DateUTC
2013-07-08 00:02:00,66.0,63.0,30.58,SE,144,1.0,4.0,90,0.00,,,0.01,meteohub,2013-07-07 23:02:00,
2013-07-08 00:07:00,65.7,62.6,30.58,SE,144,0.0,4.0,90,0.00,,,0.00,meteohub,2013-07-07 23:07:00,
2013-07-08 00:12:00,64.8,61.5,30.58,SE,144,0.0,4.0,89,0.00,,,0.00,meteohub,2013-07-07 23:12:00,
2013-07-08 00:17:00,64.0,61.0,30.58,SE,144,0.0,4.0,90,0.00,,,0.00,meteohub,2013-07-07 23:17:00,
2013-07-08 00:22:00,63.7,60.6,30.58,SE,144,0.0,2.0,90,0.00,,,0.00,meteohub,2013-07-07 23:22:00,
2013-07-08 00:27:00,63.5,60.8,30.58,SE,144,0.0,1.0,91,0.00,,,0.00,meteohub,2013-07-07 23:27:00,
2013-07-08 00:32:00,63.5,60.8,30.58,SE,144,2.0,2.0,91,0.00,,,0.00,meteohub,2013-07-07 23:32:00,
2013-07-08 00:37:00,63.7,61.3,30.58,SE,144,0.0,2.0,92,0.00,,,0.00,meteohub,2013-07-07 23:37:00,
2013-07-08 00:42:00,63.9,61.5,30.58,SE,144,1.0,2.0,92,0.00,,,0.00,meteohub,2013-07-07 23:42:00,
2013-07-08 00:47:00,63.9,61.5,30.58,SE,144,0.0,2.0,92,0.00,,,0.00,meteohub,2013-07-07 23:47:00,
2013-07-08 00:52:00,63.9,61.5,30.58,SE,144,0.0,2.0,92,0.00,,,0.00,meteohub,2013-07-07 23:52:00,
2013-07-08 00:57:00,63.9,61.5,30.58,SE,144,0.0,4.0,92,0.00,,,0.00,meteohub,2013-07-07 23:57:00,
2013-07-08 01:02:00,63.3,61.0,30.58,SE,144,0.0,4.0,92,0.00,,,0.00,meteohub,2013-07-08 00:02:00,
2013-07-08 01:07:00,63.1,60.8,30.58,SE,144,0.0,4.0,92,0.00,,,0.00,meteohub,2013-07-08 00:07:00,
2013-07-08 01:12:00,63.1,60.8,30.58,SE,144,0.0,1.0,92,0.00,,,0.00,meteohub,2013-07-08 00:12:00,
2013-07-08 01:17:00,63.0,60.6,30.58,SE,144,0.0,1.0,92,0.00,,,0.00,meteohub,2013-07-08 00:17:00,
2013-07-08 01:22:00,62.8,60.4,30.58,SE,144,0.0,2.0,92,0.00,,,0.00,meteohub,2013-07-08 00:22:00,
2013-07-08 01:27:00,62.8,60.4,30.58,SE,144,0.0,2.0,92,0.00,,,0.00,meteohub,2013-07-08 00:27:00,
2013-07-08 01:32:00,63.1,61.2,30.58,SE,144,1.0,4.0,93,0.00,,,0.00,meteohub,2013-07-08 00:32:00,
2013-07-08 01:37:00,63.3,61.3,30.58,SE,144,1.0,4.0,93,0.00,,,0.00,meteohub,2013-07-08 00:37:00,
2013-07-08 01:42:00,63.5,61.5,30.58,SE,144,1.0,4.0,93,0.00,,,0.00,meteohub,2013-07-08 00:42:00,
2013-07-08 01:47:00,63.7,61.7,30.58,SE,144,0.0,5.0,93,0.00,,,0.00,meteohub,2013-07-08 00:47:00,
2013-07-08 01:52:00,63.7,61.7,30.58,SE,144,0.0,5.0,93,0.00,,,0.00,meteohub,2013-07-08 00:52:00,
2013-07-08 01:57:00,63.7,61.7,30.58,SE,144,2.0,4.0,93,0.00,,,0.00,meteohub,2013-07-08 00:57:00,
2013-07-08 02:02:00,63.5,61.5,30.58,SE,144,1.0,4.0,93,0.00,,,0.00,meteohub,2013-07-08 01:02:00,
2013-07-08 02:07:00,63.5,61.5,30.58,SE,144,1.0,4.0,93,0.00,,,0.00,meteohub,2013-07-08 01:07:00,
2013-07-08 02:12:00,63.3,61.3,30.58,SE,144,0.0,4.0,93,0.00,,,0.00,meteohub,2013-07-08 01:12:00,
2013-07-08 02:17:00,63.0,61.0,30.57,SE,144,1.0,4.0,93,0.00,,,0.00,meteohub,2013-07-08 01:17:00,
2013-07-08 02:22:00,63.0,60.6,30.57,SE,144,0.0,2.0,92,0.00,,,0.00,meteohub,2013-07-08 01:22:00,
2013-07-08 02:27:00,62.6,60.6,30.57,SE,144,0.0,2.0,93,0.00,,,0.00,meteohub,2013-07-08 01:27:00,
2013-07-08 02:32:00,62.4,60.4,30.57,SE,144,1.0,2.0,93,0.00,,,0.00,meteohub,2013-07-08 01:32:00,
2013-07-08 02:37:00,62.4,60.4,30.57,SE,144,1.0,4.0,93,0.00,,,0.00,meteohub,2013-07-08 01:37:00,
2013-07-08 02:42:00,62.4,60.4,30.57,SE,144,0.0,4.0,93,0.00,,,0.00,meteohub,2013-07-08 01:42:00,
2013-07-08 02:47:00,62.2,60.3,30.57,SE,144,2.0,4.0,93,0.00,,,0.00,meteohub,2013-07-08 01:47:00,
2013-07-08 02:52:00,62.4,60.4,30.57,SE,144,0.0,5.0,93,0.00,,,0.00,meteohub,2013-07-08 01:52:00,
2013-07-08 02:57:00,62.4,60.4,30.57,SE,144,1.0,5.0,93,0.00,,,0.00,meteohub,2013-07-08 01:57:00,
2013-07-08 03:02:00,62.2,60.3,30.57,SE,144,2.0,5.0,93,0.00,,,0.00,meteohub,2013-07-08 02:02:00,
2013-07-08 03:07:00,62.2,60.3,30.57,SE,144,2.0,5.0,93,0.00,,,0.00,meteohub,2013-07-08 02:07:00,
2013-07-08 03:12:00,62.1,60.1,30.57,SE,144,1.0,5.0,93,0.00,,,0.00,meteohub,2013-07-08 02:12:00,
2013-07-08 03:17:00,61.9,59.9,30.57,SE,144,1.0,5.0,93,0.00,,,0.00,meteohub,2013-07-08 02:17:00,
2013-07-08 03:22:00,61.9,59.9,30.57,SE,144,1.0,5.0,93,0.00,,,0.00,meteohub,2013-07-08 02:22:00,
2013-07-08 03:27:00,61.7,59.7,30.57,SE,144,2.0,4.0,93,0.00,,,0.00,meteohub,2013-07-08 02:27:00,
2013-07-08 03:32:00,61.5,59.5,30.57,SE,144,2.0,5.0,93,0.00,,,0.00,meteohub,2013-07-08 02:32:00,
2013-07-08 03:37:00,61.5,59.5,30.57,SE,144,2.0,5.0,93,0.00,,,0.00,meteohub,2013-07-08 02:37:00,
2013-07-08 03:42:00,61.3,59.4,30.57,SE,144,4.0,5.0,93,0.00,,,0.00,meteohub,2013-07-08 02:42:00,
2013-07-08 03:47:00,61.3,59.4,30.56,SE,144,1.0,5.0,93,0.00,,,0.00,meteohub,2013-07-08 02:47:00,
2013-07-08 03:52:00,61.2,59.2,30.56,SE,144,0.0,5.0,93,0.00,,,0.00,meteohub,2013-07-08 02:52:00,
2013-07-08 03:57:00,61.3,59.5,30.56,SE,144,1.0,5.0,94,0.00,,,0.00,meteohub,2013-07-08 02:57:00,
2013-07-08 04:02:00,61.3,59.5,30.57,SE,144,2.0,4.0,94,0.00,,,0.00,meteohub,2013-07-08 03:02:00,
2013-07-08 04:07:00,61.3,59.5,30.56,SE,144,2.0,4.0,94,0.00,,,0.00,meteohub,2013-07-08 03:07:00,
2013-07-08 04:12:00,61.3,59.5,30.56,SE,144,2.0,4.0,94,0.00,,,0.00,meteohub,2013-07-08 03:12:00,
2013-07-08 04:17:00,61.3,59.5,30.56,SE,144,0.0,4.0,94,0.00,,,0.00,meteohub,2013-07-08 03:17:00,
2013-07-08 04:22:00,61.2,59.4,30.57,SE,144,0.0,2.0,94,0.00,,,0.00,meteohub,2013-07-08 03:22:00,
2013-07-08 04:27:00,61.2,59.2,30.57,SE,144,0.0,2.0,93,0.00,,,0.00,meteohub,2013-07-08 03:27:00,
2013-07-08 04:32:00,61.2,59.2,30.56,SE,144,0.0,2.0,93,0.00,,,0.00,meteohub,2013-07-08 03:32:00,
2013-07-08 04:37:00,61.2,59.2,30.57,SE,144,1.0,2.0,93,0.00,,,0.00,meteohub,2013-07-08 03:37:00,
2013-07-08 04:42:00,61.0,59.0,30.57,SE,144,0.0,4.0,93,0.00,,,0.00,meteohub,2013-07-08 03:42:00,
2013-07-08 04:47:00,60.6,58.6,30.57,SE,144,0.0,4.0,93,0.00,,,0.00,meteohub,2013-07-08 03:47:00,
2013-07-08 04:52:00,60.6,58.6,30.57,SE,144,0.0,4.0,93,0.00,,,0.00,meteohub,2013-07-08 03:52:00,
2013-07-08 04:57:00,60.4,58.6,30.57,SE,144,2.0,4.0,94,0.00,,,0.00,meteohub,2013-07-08 03:57:00,
2013-07-08 05:02:00,60.4,58.5,30.57,SE,144,2.0,4.0,93,0.00,,,0.00,meteohub,2013-07-08 04:02:00,
2013-07-08 05:07:00,60.3,58.3,30.57,SE,144,1.0,4.0,93,0.00,,,0.00,meteohub,2013-07-08 04:07:00,
2013-07-08 05:12:00,60.1,58.1,30.57,SE,144,0.0,4.0,93,0.00,,,0.00,meteohub,2013-07-08 04:12:00,
2013-07-08 05:17:00,59.9,57.9,30.57,SE,144,1.0,4.0,93,0.00,,,0.00,meteohub,2013-07-08 04:17:00,
2013-07-08 05:22:00,59.7,57.7,30.57,SE,144,2.0,5.0,93,0.00,,,0.00,meteohub,2013-07-08 04:22:00,
2013-07-08 05:27:00,59.5,57.6,30.57,SE,144,2.0,5.0,93,0.00,,,0.00,meteohub,2013-07-08 04:27:00,
2013-07-08 05:32:00,59.5,57.6,30.57,SE,144,0.0,5.0,93,0.00,,,0.00,meteohub,2013-07-08 04:32:00,
2013-07-08 05:37:00,59.4,57.6,30.57,SE,144,0.0,5.0,94,0.00,,,0.00,meteohub,2013-07-08 04:37:00,
2013-07-08 05:42:00,59.4,57.6,30.57,SE,144,4.0,5.0,94,0.00,,,0.00,meteohub,2013-07-08 04:42:00,
2013-07-08 05:47:00,59.2,57.4,30.57,SE,144,2.0,6.0,94,0.00,,,0.00,meteohub,2013-07-08 04:47:00,
2013-07-08 05:52:00,59.0,57.2,30.57,SE,144,4.0,6.0,94,0.00,,,0.00,meteohub,2013-07-08 04:52:00,
2013-07-08 05:57:00,58.8,57.0,30.57,SE,144,4.0,6.0,94,0.00,,,0.00,meteohub,2013-07-08 04:57:00,
2013-07-08 06:02:00,58.6,56.8,30.57,SE,144,2.0,6.0,94,0.00,,,0.00,meteohub,2013-07-08 05:02:00,
2013-07-08 06:07:00,58.6,56.8,30.58,SE,144,4.0,6.0,94,0.00,,,0.00,meteohub,2013-07-08 05:07:00,
2013-07-08 06:12:00,58.8,57.0,30.58,SE,144,0.0,5.0,94,0.00,,,0.00,meteohub,2013-07-08 05:12:00,
2013-07-08 06:17:00,58.8,57.0,30.58,SE,144,1.0,5.0,94,0.00,,,0.00,meteohub,2013-07-08 05:17:00,
2013-07-08 06:22:00,58.8,57.0,30.58,SE,144,4.0,5.0,94,0.00,,,0.00,meteohub,2013-07-08 05:22:00,
2013-07-08 06:27:00,59.0,57.2,30.58,SE,144,0.0,4.0,94,0.00,,,0.00,meteohub,2013-07-08 05:27:00,
2013-07-08 06:32:00,59.2,57.4,30.58,SE,144,0.0,4.0,94,0.00,,,0.00,meteohub,2013-07-08 05:32:00,
2013-07-08 06:37:00,59.4,57.6,30.58,SE,144,1.0,4.0,94,0.00,,,0.00,meteohub,2013-07-08 05:37:00,
2013-07-08 06:42:00,59.5,57.7,30.58,SE,144,1.0,4.0,94,0.00,,,0.00,meteohub,2013-07-08 05:42:00,
2013-07-08 06:47:00,59.7,57.9,30.58,SE,144,4.0,4.0,94,0.00,,,0.00,meteohub,2013-07-08 05:47:00,
2013-07-08 06:52:00,59.9,58.1,30.58,SE,144,0.0,4.0,94,0.00,,,0.00,meteohub,2013-07-08 05:52:00,
2013-07-08 06:57:00,60.1,58.3,30.58,SE,144,1.0,4.0,94,0.00,,,0.00,meteohub,2013-07-08 05:57:00,
2013-07-08 07:02:00,60.3,58.5,30.58,SE,144,2.0,4.0,94,0.00,,,0.00,meteohub,2013-07-08 06:02:00,
2013-07-08 07:07:00,60.6,58.8,30.58,SE,144,0.0,5.0,94,0.00,,,0.00,meteohub,2013-07-08 06:07:00,
2013-07-08 07:12:00,60.8,59.0,30.58,SE,144,0.0,5.0,94,0.00,,,0.00,meteohub,2013-07-08 06:12:00,
2013-07-08 07:17:00,61.0,59.0,30.58,SE,144,0.0,5.0,93,0.00,,,0.00,meteohub,2013-07-08 06:17:00,
2013-07-08 07:22:00,61.2,59.2,30.58,SE,144,2.0,4.0,93,0.00,,,0.00,meteohub,2013-07-08 06:22:00,
2013-07-08 07:27:00,61.2,59.2,30.58,SE,144,0.0,4.0,93,0.00,,,0.00,meteohub,2013-07-08 06:27:00,
2013-07-08 07:32:00,61.3,59.4,30.58,SE,144,1.0,4.0,93,0.00,,,0.00,meteohub,2013-07-08 06:32:00,
2013-07-08 07:37:00,61.5,59.2,30.58,SE,144,0.0,4.0,92,0.00,,,0.00,meteohub,2013-07-08 06:37:00,
2013-07-08 07:42:00,62.1,60.1,30.58,SE,144,0.0,4.0,93,0.00,,,0.00,meteohub,2013-07-08 06:42:00,
2013-07-08 07:47:00,62.2,59.9,30.58,SE,144,0.0,4.0,92,0.00,,,0.00,meteohub,2013-07-08 06:47:00,
2013-07-08 07:52:00,62.8,60.4,30.58,SE,144,0.0,1.0,92,0.00,,,0.00,meteohub,2013-07-08 06:52:00,
2013-07-08 07:57:00,63.1,60.8,30.58,SE,144,2.0,2.0,92,0.00,,,0.00,meteohub,2013-07-08 06:57:00,
2013-07-08 08:02:00,63.5,60.8,30.58,SE,144,0.0,2.0,91,0.00,,,0.00,meteohub,2013-07-08 07:02:00,
2013-07-08 08:07:00,64.0,61.0,30.58,SE,144,2.0,5.0,90,0.00,,,0.00,meteohub,2013-07-08 07:07:00,
2013-07-08 08:12:00,64.6,61.5,30.58,SE,144,0.0,5.0,90,0.00,,,0.00,meteohub,2013-07-08 07:12:00,
2013-07-08 08:17:00,64.9,61.7,30.58,SE,144,0.0,5.0,89,0.00,,,0.00,meteohub,2013-07-08 07:17:00,
2013-07-08 08:22:00,65.3,62.1,30.58,SE,144,4.0,5.0,89,0.00,,,0.00,meteohub,2013-07-08 07:22:00,
2013-07-08 08:27:00,65.8,62.2,30.58,SE,144,1.0,5.0,88,0.00,,,0.00,meteohub,2013-07-08 07:27:00,
2013-07-08 08:32:00,66.4,62.4,30.58,SE,144,2.0,6.0,87,0.00,,,0.00,meteohub,2013-07-08 07:32:00,
2013-07-08 08:37:00,66.6,62.6,30.58,SE,144,4.0,6.0,87,0.00,,,0.00,meteohub,2013-07-08 07:37:00,
2013-07-08 08:42:00,67.1,62.8,30.58,SE,144,5.0,6.0,86,0.00,,,0.00,meteohub,2013-07-08 07:42:00,
2013-07-08 08:47:00,67.5,62.8,30.58,ESE,112,6.0,9.0,85,0.00,,,0.00,meteohub,2013-07-08 07:47:00,
2013-07-08 08:52:00,68.0,63.0,30.58,East,97,6.0,10.0,84,0.00,,,0.00,meteohub,2013-07-08 07:52:00,
2013-07-08 08:57:00,68.4,63.0,30.58,East,94,1.0,10.0,83,0.00,,,0.00,meteohub,2013-07-08 07:57:00,
2013-07-08 09:02:00,68.9,63.5,30.58,ESE,112,4.0,10.0,83,0.00,,,0.00,meteohub,2013-07-08 08:02:00,
2013-07-08 09:07:00,69.3,63.5,30.58,East,90,4.0,10.0,82,0.00,,,0.00,meteohub,2013-07-08 08:07:00,
2013-07-08 09:12:00,69.6,63.5,30.58,ESE,121,9.0,10.0,81,0.00,,,0.00,meteohub,2013-07-08 08:12:00,
2013-07-08 09:17:00,69.8,63.7,30.58,ESE,113,5.0,11.0,81,0.00,,,0.00,meteohub,2013-07-08 08:17:00,
2013-07-08 09:22:00,70.5,64.0,30.58,ENE,62,6.0,11.0,80,0.00,,,0.00,meteohub,2013-07-08 08:22:00,
2013-07-08 09:27:00,71.1,64.2,30.58,East,90,2.0,11.0,79,0.00,,,0.00,meteohub,2013-07-08 08:27:00,
2013-07-08 09:32:00,71.4,64.6,30.58,East,90,6.0,9.0,79,0.00,,,0.00,meteohub,2013-07-08 08:32:00,
2013-07-08 09:37:00,71.8,64.6,30.58,ESE,118,5.0,9.0,78,0.00,,,0.00,meteohub,2013-07-08 08:37:00,
2013-07-08 09:42:00,72.1,64.6,30.58,ENE,63,4.0,13.0,77,0.00,,,0.00,meteohub,2013-07-08 08:42:00,
2013-07-08 09:47:00,72.5,64.0,30.58,ESE,111,6.0,13.0,75,0.00,,,0.00,meteohub,2013-07-08 08:47:00,
2013-07-08 09:52:00,72.3,63.5,30.58,ESE,114,9.0,13.0,74,0.00,,,0.00,meteohub,2013-07-08 08:52:00,
2013-07-08 09:57:00,72.9,64.4,30.58,East,82,6.0,13.0,75,0.00,,,0.00,meteohub,2013-07-08 08:57:00,
2013-07-08 10:02:00,73.6,64.4,30.58,ENE,68,5.0,11.0,73,0.00,,,0.00,meteohub,2013-07-08 09:02:00,
2013-07-08 10:07:00,74.1,64.6,30.58,ESE,108,2.0,11.0,72,0.00,,,0.00,meteohub,2013-07-08 09:07:00,
2013-07-08 10:12:00,74.7,65.1,30.58,East,80,2.0,11.0,72,0.00,,,0.00,meteohub,2013-07-08 09:12:00,
2013-07-08 10:17:00,74.8,64.8,30.57,East,90,8.0,10.0,71,0.00,,,0.00,meteohub,2013-07-08 09:17:00,
2013-07-08 10:22:00,75.2,64.8,30.57,ESE,120,11.0,11.0,70,0.00,,,0.00,meteohub,2013-07-08 09:22:00,
2013-07-08 10:27:00,74.8,64.8,30.57,ENE,57,4.0,13.0,71,0.00,,,0.00,meteohub,2013-07-08 09:27:00,
2013-07-08 10:32:00,75.6,65.5,30.57,ESE,111,9.0,13.0,71,0.00,,,0.00,meteohub,2013-07-08 09:32:00,
2013-07-08 10:37:00,75.7,64.8,30.57,East,94,9.0,13.0,69,0.00,,,0.00,meteohub,2013-07-08 09:37:00,
2013-07-08 10:42:00,76.1,64.8,30.57,East,101,8.0,11.0,68,0.00,,,0.00,meteohub,2013-07-08 09:42:00,
2013-07-08 10:47:00,76.3,64.9,30.57,ESE,107,2.0,13.0,68,0.00,,,0.00,meteohub,2013-07-08 09:47:00,
2013-07-08 10:52:00,76.8,64.6,30.57,ESE,111,5.0,13.0,66,0.00,,,0.00,meteohub,2013-07-08 09:52:00,
2013-07-08 10:57:00,77.2,65.3,30.57,ESE,115,2.0,11.0,67,0.00,,,0.00,meteohub,2013-07-08 09:57:00,
2013-07-08 11:02:00,76.8,64.6,30.57,ESE,102,5.0,11.0,66,0.00,,,0.00,meteohub,2013-07-08 10:02:00,
2013-07-08 11:07:00,77.5,64.8,30.57,East,98,4.0,13.0,65,0.00,,,0.00,meteohub,2013-07-08 10:07:00,
2013-07-08 11:12:00,77.4,65.1,30.57,East,98,8.0,14.0,66,0.00,,,0.00,meteohub,2013-07-08 10:12:00,
2013-07-08 11:17:00,77.5,64.4,30.57,ESE,109,5.0,14.0,64,0.00,,,0.00,meteohub,2013-07-08 10:17:00,
2013-07-08 11:22:00,77.7,64.6,30.57,SE,124,10.0,14.0,64,0.00,,,0.00,meteohub,2013-07-08 10:22:00,
2013-07-08 11:27:00,77.5,64.8,30.57,ESE,115,10.0,14.0,65,0.00,,,0.00,meteohub,2013-07-08 10:27:00,
2013-07-08 11:32:00,78.1,64.9,30.56,ESE,117,10.0,14.0,64,0.00,,,0.00,meteohub,2013-07-08 10:32:00,
2013-07-08 11:37:00,79.0,65.8,30.56,SE,130,5.0,15.0,64,0.00,,,0.00,meteohub,2013-07-08 10:37:00,
2013-07-08 11:42:00,78.8,65.1,30.56,SE,130,8.0,15.0,63,0.00,,,0.00,meteohub,2013-07-08 10:42:00,
2013-07-08 11:47:00,79.0,65.3,30.56,ESE,113,2.0,13.0,63,0.00,,,0.00,meteohub,2013-07-08 10:47:00,
2013-07-08 11:52:00,80.1,65.8,30.56,NE,52,8.0,15.0,62,0.00,,,0.00,meteohub,2013-07-08 10:52:00,
2013-07-08 11:57:00,79.9,66.2,30.56,ESE,111,4.0,15.0,63,0.00,,,0.00,meteohub,2013-07-08 10:57:00,
2013-07-08 12:02:00,79.9,66.2,30.56,East,89,4.0,13.0,63,0.00,,,0.00,meteohub,2013-07-08 11:02:00,
2013-07-08 12:07:00,80.2,66.0,30.56,East,85,1.0,13.0,62,0.00,,,0.00,meteohub,2013-07-08 11:07:00,
2013-07-08 12:12:00,81.0,66.2,30.56,NE,55,5.0,13.0,61,0.00,,,0.00,meteohub,2013-07-08 11:12:00,
2013-07-08 12:17:00,81.0,66.2,30.56,ESE,115,9.0,13.0,61,0.00,,,0.00,meteohub,2013-07-08 11:17:00,
2013-07-08 12:22:00,81.3,67.1,30.56,ESE,119,6.0,11.0,62,0.00,,,0.00,meteohub,2013-07-08 11:22:00,
2013-07-08 12:27:00,81.7,66.4,30.56,ENE,57,4.0,11.0,60,0.00,,,0.00,meteohub,2013-07-08 11:27:00,
2013-07-08 12:32:00,81.5,66.2,30.56,ESE,108,6.0,11.0,60,0.00,,,0.00,meteohub,2013-07-08 11:32:00,
2013-07-08 12:37:00,81.5,65.8,30.56,ENE,73,2.0,13.0,59,0.00,,,0.00,meteohub,2013-07-08 11:37:00,
2013-07-08 12:42:00,82.4,66.2,30.56,ENE,65,4.0,13.0,58,0.00,,,0.00,meteohub,2013-07-08 11:42:00,
2013-07-08 12:47:00,81.9,66.2,30.56,SE,143,8.0,13.0,59,0.00,,,0.00,meteohub,2013-07-08 11:47:00,
2013-07-08 12:52:00,82.6,66.4,30.55,SE,125,4.0,10.0,58,0.00,,,0.00,meteohub,2013-07-08 11:52:00,
2013-07-08 12:57:00,82.9,66.2,30.55,ESE,112,5.0,10.0,57,0.00,,,0.00,meteohub,2013-07-08 11:57:00,
2013-07-08 13:02:00,83.3,67.5,30.55,ESE,103,1.0,10.0,59,0.00,,,0.00,meteohub,2013-07-08 12:02:00,
2013-07-08 13:07:00,83.5,66.2,30.55,ESE,114,4.0,13.0,56,0.00,,,0.00,meteohub,2013-07-08 12:07:00,
2013-07-08 13:12:00,83.8,66.0,30.55,ESE,107,4.0,13.0,55,0.00,,,0.00,meteohub,2013-07-08 12:12:00,
2013-07-08 13:17:00,83.1,65.3,30.55,ENE,61,6.0,13.0,55,0.00,,,0.00,meteohub,2013-07-08 12:17:00,
2013-07-08 13:22:00,83.8,65.5,30.55,East,80,2.0,11.0,54,0.00,,,0.00,meteohub,2013-07-08 12:22:00,
2013-07-08 13:27:00,84.7,67.3,30.55,ESE,110,10.0,11.0,56,0.00,,,0.00,meteohub,2013-07-08 12:27:00,
2013-07-08 13:32:00,83.8,65.5,30.55,ESE,120,5.0,11.0,54,0.00,,,0.00,meteohub,2013-07-08 12:32:00,
2013-07-08 13:37:00,84.0,65.7,30.55,ESE,111,4.0,11.0,54,0.00,,,0.00,meteohub,2013-07-08 12:37:00,
2013-07-08 13:42:00,84.2,66.2,30.55,ESE,114,6.0,11.0,55,0.00,,,0.00,meteohub,2013-07-08 12:42:00,
2013-07-08 13:47:00,84.6,67.6,30.54,ESE,112,4.0,10.0,57,0.00,,,0.00,meteohub,2013-07-08 12:47:00,
2013-07-08 13:52:00,84.9,67.5,30.54,East,80,4.0,10.0,56,0.00,,,0.00,meteohub,2013-07-08 12:52:00,
2013-07-08 13:57:00,85.3,67.3,30.54,ESE,107,1.0,10.0,55,0.00,,,0.00,meteohub,2013-07-08 12:57:00,
2013-07-08 14:02:00,85.5,66.9,30.54,East,80,2.0,13.0,54,0.00,,,0.00,meteohub,2013-07-08 13:02:00,
2013-07-08 14:07:00,86.2,66.6,30.54,ENE,66,5.0,13.0,52,0.00,,,0.00,meteohub,2013-07-08 13:07:00,
2013-07-08 14:12:00,84.4,65.8,30.54,East,101,4.0,13.0,54,0.00,,,0.00,meteohub,2013-07-08 13:12:00,
2013-07-08 14:17:00,85.5,67.5,30.54,ESE,105,6.0,10.0,55,0.00,,,0.00,meteohub,2013-07-08 13:17:00,
2013-07-08 14:22:00,85.6,66.0,30.54,ESE,121,5.0,11.0,52,0.00,,,0.00,meteohub,2013-07-08 13:22:00,
2013-07-08 14:27:00,85.3,66.7,30.53,SE,129,4.0,11.0,54,0.00,,,0.00,meteohub,2013-07-08 13:27:00,
2013-07-08 14:32:00,85.8,66.7,30.53,SE,126,1.0,11.0,53,0.00,,,0.00,meteohub,2013-07-08 13:32:00,
2013-07-08 14:37:00,86.2,67.1,30.53,ESE,117,5.0,10.0,53,0.00,,,0.00,meteohub,2013-07-08 13:37:00,
2013-07-08 14:42:00,86.4,67.8,30.53,ESE,109,4.0,11.0,54,0.00,,,0.00,meteohub,2013-07-08 13:42:00,
2013-07-08 14:47:00,87.3,67.5,30.53,ESE,104,6.0,11.0,52,0.00,,,0.00,meteohub,2013-07-08 13:47:00,
2013-07-08 14:52:00,86.5,67.5,30.53,ESE,119,9.0,11.0,53,0.00,,,0.00,meteohub,2013-07-08 13:52:00,
2013-07-08 14:57:00,86.4,66.7,30.53,ESE,123,5.0,11.0,52,0.00,,,0.00,meteohub,2013-07-08 13:57:00,
2013-07-08 15:02:00,86.7,66.9,30.53,ESE,107,10.0,11.0,52,0.00,,,0.00,meteohub,2013-07-08 14:02:00,
2013-07-08 15:07:00,86.2,66.6,30.53,ESE,103,6.0,11.0,52,0.00,,,0.00,meteohub,2013-07-08 14:07:00,
2013-07-08 15:12:00,87.3,67.5,30.53,ESE,122,1.0,11.0,52,0.00,,,0.00,meteohub,2013-07-08 14:12:00,
2013-07-08 15:17:00,87.3,68.0,30.53,ENE,74,4.0,11.0,53,0.00,,,0.00,meteohub,2013-07-08 14:17:00,
2013-07-08 15:22:00,87.1,67.3,30.53,East,97,4.0,10.0,52,0.00,,,0.00,meteohub,2013-07-08 14:22:00,
2013-07-08 15:27:00,88.0,66.4,30.53,East,101,6.0,10.0,49,0.00,,,0.00,meteohub,2013-07-08 14:27:00,
2013-07-08 15:32:00,87.8,68.0,30.53,ESE,123,2.0,10.0,52,0.00,,,0.00,meteohub,2013-07-08 14:32:00,
2013-07-08 15:37:00,88.2,67.1,30.52,ESE,115,5.0,11.0,50,0.00,,,0.00,meteohub,2013-07-08 14:37:00,
2013-07-08 15:47:00,87.1,66.2,30.52,SE,128,9.0,13.0,50,0.00,,,0.00,meteohub,2013-07-08 14:47:00,
2013-07-08 15:52:00,87.1,66.2,30.52,ESE,119,2.0,13.0,50,0.00,,,0.00,meteohub,2013-07-08 14:52:00,
2013-07-08 15:57:00,87.6,67.3,30.52,ESE,122,4.0,11.0,51,0.00,,,0.00,meteohub,2013-07-08 14:57:00,
2013-07-08 16:02:00,87.4,66.6,30.52,ESE,119,6.0,11.0,50,0.00,,,0.00,meteohub,2013-07-08 15:02:00,
2013-07-08 16:07:00,87.6,66.7,30.52,ESE,110,1.0,10.0,50,0.00,,,0.00,meteohub,2013-07-08 15:07:00,
2013-07-08 16:12:00,87.4,65.8,30.52,SE,128,1.0,10.0,49,0.00,,,0.00,meteohub,2013-07-08 15:12:00,
2013-07-08 16:17:00,87.6,65.5,30.51,ESE,117,5.0,10.0,48,0.00,,,0.00,meteohub,2013-07-08 15:17:00,
2013-07-08 16:22:00,87.4,66.6,30.51,ESE,117,1.0,9.0,50,0.00,,,0.00,meteohub,2013-07-08 15:22:00,
2013-07-08 16:27:00,87.6,67.3,30.51,East,80,6.0,11.0,51,0.00,,,0.00,meteohub,2013-07-08 15:27:00,
2013-07-08 16:32:00,87.8,68.0,30.51,ESE,103,1.0,13.0,52,0.00,,,0.00,meteohub,2013-07-08 15:32:00,
2013-07-08 16:37:00,87.8,66.2,30.51,SSE,155,0.0,13.0,49,0.00,,,0.00,meteohub,2013-07-08 15:37:00,
2013-07-08 16:42:00,88.0,68.2,30.51,ESE,113,1.0,13.0,52,0.00,,,0.00,meteohub,2013-07-08 15:42:00,
2013-07-08 16:47:00,88.0,67.6,30.51,ESE,115,2.0,9.0,51,0.00,,,0.00,meteohub,2013-07-08 15:47:00,
2013-07-08 16:52:00,87.4,66.6,30.51,ESE,117,1.0,10.0,50,0.00,,,0.00,meteohub,2013-07-08 15:52:00,
2013-07-08 16:57:00,87.3,67.5,30.51,ESE,107,2.0,11.0,52,0.00,,,0.00,meteohub,2013-07-08 15:57:00,
2013-07-08 17:02:00,87.3,66.9,30.50,ESE,119,2.0,11.0,51,0.00,,,0.00,meteohub,2013-07-08 16:02:00,
2013-07-08 17:07:00,87.1,67.3,30.50,ENE,57,6.0,11.0,52,0.00,,,0.00,meteohub,2013-07-08 16:07:00,
2013-07-08 17:12:00,87.4,67.6,30.50,East,88,8.0,11.0,52,0.00,,,0.00,meteohub,2013-07-08 16:12:00,
2013-07-08 17:17:00,87.3,66.9,30.50,ESE,110,2.0,11.0,51,0.00,,,0.00,meteohub,2013-07-08 16:17:00,
2013-07-08 17:22:00,87.4,67.6,30.50,ESE,115,10.0,11.0,52,0.00,,,0.00,meteohub,2013-07-08 16:22:00,
2013-07-08 17:27:00,87.3,66.9,30.50,SE,128,6.0,13.0,51,0.00,,,0.00,meteohub,2013-07-08 16:27:00,
2013-07-08 17:32:00,86.7,66.9,30.50,ESE,109,6.0,13.0,52,0.00,,,0.00,meteohub,2013-07-08 16:32:00,
2013-07-08 17:37:00,87.1,67.3,30.49,ESE,106,4.0,13.0,52,0.00,,,0.00,meteohub,2013-07-08 16:37:00,
2013-07-08 17:42:00,86.7,66.4,30.49,ESE,112,2.0,11.0,51,0.00,,,0.00,meteohub,2013-07-08 16:42:00,
2013-07-08 17:48:00,86.9,66.6,30.49,ENE,67,4.0,9.0,51,0.00,,,0.00,meteohub,2013-07-08 16:48:00,
2013-07-08 17:57:00,86.4,67.3,30.49,ENE,76,2.0,9.0,53,0.00,,,0.00,meteohub,2013-07-08 16:57:00,
2013-07-08 18:07:00,85.8,66.2,30.49,ESE,121,4.0,9.0,52,0.00,,,0.00,meteohub,2013-07-08 17:07:00,
2013-07-08 18:12:00,85.8,66.7,30.49,SE,128,8.0,10.0,53,0.00,,,0.00,meteohub,2013-07-08 17:12:00,
2013-07-08 18:17:00,85.5,66.9,30.49,ESE,109,4.0,10.0,54,0.00,,,0.00,meteohub,2013-07-08 17:17:00,
2013-07-08 18:27:00,85.6,67.1,30.48,ESE,115,5.0,9.0,54,0.00,,,0.00,meteohub,2013-07-08 17:27:00,
2013-07-08 18:32:00,85.3,66.2,30.48,East,87,2.0,9.0,53,0.00,,,0.00,meteohub,2013-07-08 17:32:00,
2013-07-08 18:37:00,84.9,66.4,30.48,ESE,109,4.0,9.0,54,0.00,,,0.00,meteohub,2013-07-08 17:37:00,
2013-07-08 18:42:00,84.9,66.4,30.48,ESE,114,5.0,9.0,54,0.00,,,0.00,meteohub,2013-07-08 17:42:00,
2013-07-08 18:47:00,84.7,66.7,30.48,ESE,113,4.0,9.0,55,0.00,,,0.00,meteohub,2013-07-08 17:47:00,
2013-07-08 18:52:00,84.6,66.6,30.48,ENE,74,4.0,6.0,55,0.00,,,0.00,meteohub,2013-07-08 17:52:00,
2013-07-08 18:57:00,84.4,66.4,30.48,ESE,109,4.0,8.0,55,0.00,,,0.00,meteohub,2013-07-08 17:57:00,
2013-07-08 19:02:00,84.0,66.2,30.48,East,98,6.0,9.0,55,0.00,,,0.00,meteohub,2013-07-08 18:02:00,
2013-07-08 19:07:00,83.8,66.0,30.48,East,92,2.0,9.0,55,0.00,,,0.00,meteohub,2013-07-08 18:07:00,
2013-07-08 19:12:00,83.7,66.4,30.48,East,101,2.0,9.0,56,0.00,,,0.00,meteohub,2013-07-08 18:12:00,
2013-07-08 19:17:00,83.3,66.6,30.48,ESE,102,2.0,9.0,57,0.00,,,0.00,meteohub,2013-07-08 18:17:00,
2013-07-08 19:25:00,83.3,66.9,30.48,East,84,4.0,10.0,58,0.00,,,0.00,meteohub,2013-07-08 18:25:00,
2013-07-08 19:32:00,82.6,66.4,30.48,East,90,2.0,10.0,58,0.00,,,0.00,meteohub,2013-07-08 18:32:00,
2013-07-08 19:40:00,82.6,66.4,30.48,East,83,1.0,9.0,58,0.00,,,0.00,meteohub,2013-07-08 18:40:00,
2013-07-08 19:47:00,82.4,66.6,30.48,East,101,2.0,6.0,59,0.00,,,0.00,meteohub,2013-07-08 18:47:00,
2013-07-08 19:55:00,82.0,67.3,30.48,ESE,102,1.0,6.0,61,0.00,,,0.00,meteohub,2013-07-08 18:55:00,
2013-07-08 20:02:00,81.7,66.4,30.48,ENE,63,1.0,8.0,60,0.00,,,0.00,meteohub,2013-07-08 19:02:00,
2013-07-08 20:07:00,81.5,66.2,30.48,ENE,72,2.0,8.0,60,0.00,,,0.00,meteohub,2013-07-08 19:07:00,
2013-07-08 20:12:00,81.1,66.4,30.48,ENE,76,1.0,6.0,61,0.00,,,0.00,meteohub,2013-07-08 19:12:00,
2013-07-08 20:20:00,81.1,66.9,30.48,ENE,60,4.0,8.0,62,0.00,,,0.00,meteohub,2013-07-08 19:20:00,
2013-07-08 20:30:00,80.8,66.6,30.48,ENE,66,2.0,9.0,62,0.00,,,0.00,meteohub,2013-07-08 19:30:00,
2013-07-08 20:37:00,80.2,66.9,30.48,ENE,70,2.0,9.0,64,0.00,,,0.00,meteohub,2013-07-08 19:37:00,
2013-07-08 20:42:00,80.1,67.3,30.48,ENE,72,6.0,6.0,65,0.00,,,0.00,meteohub,2013-07-08 19:42:00,
2013-07-08 20:47:00,79.9,67.1,30.48,ENE,72,2.0,6.0,65,0.00,,,0.00,meteohub,2013-07-08 19:47:00,
2013-07-08 20:58:00,79.5,66.7,30.48,ENE,67,2.0,6.0,65,0.00,,,0.00,meteohub,2013-07-08 19:58:00,
2013-07-08 21:05:00,79.0,67.1,30.48,NE,53,0.0,6.0,67,0.00,,,0.00,meteohub,2013-07-08 20:05:00,
2013-07-08 21:12:00,78.4,67.5,30.48,ENE,72,2.0,6.0,69,0.00,,,0.00,meteohub,2013-07-08 20:12:00,
2013-07-08 21:20:00,78.3,67.3,30.48,ENE,72,2.0,6.0,69,0.00,,,0.00,meteohub,2013-07-08 20:20:00,
2013-07-08 21:27:00,77.7,67.1,30.48,ENE,72,2.0,5.0,70,0.00,,,0.00,meteohub,2013-07-08 20:27:00,
2013-07-08 21:32:00,77.5,67.5,30.48,ENE,72,2.0,5.0,71,0.00,,,0.00,meteohub,2013-07-08 20:32:00,
2013-07-08 21:45:00,76.6,66.9,30.48,ENE,72,0.0,4.0,72,0.00,,,0.00,meteohub,2013-07-08 20:45:00,
2013-07-08 21:57:00,75.7,66.4,30.49,ENE,72,1.0,2.0,73,0.00,,,0.00,meteohub,2013-07-08 20:57:00,
2013-07-08 22:02:00,75.6,66.7,30.48,ENE,72,1.0,2.0,74,0.00,,,0.00,meteohub,2013-07-08 21:02:00,
2013-07-08 22:07:00,75.4,66.6,30.48,ENE,72,1.0,2.0,74,0.00,,,0.00,meteohub,2013-07-08 21:07:00,
2013-07-08 22:12:00,75.0,66.2,30.49,ENE,72,2.0,4.0,74,0.00,,,0.00,meteohub,2013-07-08 21:12:00,
2013-07-08 22:20:00,74.8,66.0,30.49,ENE,72,0.0,4.0,74,0.00,,,0.00,meteohub,2013-07-08 21:20:00,
2013-07-08 22:27:00,74.1,65.7,30.49,ENE,72,1.0,4.0,75,0.00,,,0.00,meteohub,2013-07-08 21:27:00,
2013-07-08 22:32:00,73.8,65.7,30.49,ENE,72,0.0,2.0,76,0.00,,,0.00,meteohub,2013-07-08 21:32:00,
2013-07-08 22:37:00,73.6,65.8,30.49,ENE,72,1.0,2.0,77,0.00,,,0.00,meteohub,2013-07-08 21:37:00,
2013-07-08 22:48:00,73.2,65.7,30.49,ENE,72,1.0,2.0,77,0.00,,,0.00,meteohub,2013-07-08 21:48:00,
2013-07-08 22:57:00,72.3,65.5,30.49,ENE,72,0.0,2.0,79,0.00,,,0.00,meteohub,2013-07-08 21:57:00,
2013-07-08 23:05:00,72.1,65.3,30.49,ENE,72,0.0,1.0,79,0.00,,,0.00,meteohub,2013-07-08 22:05:00,
2013-07-08 23:12:00,71.8,64.9,30.49,ENE,72,0.0,1.0,79,0.00,,,0.00,meteohub,2013-07-08 22:12:00,
2013-07-08 23:17:00,71.6,65.1,30.49,ENE,72,0.0,1.0,80,0.00,,,0.00,meteohub,2013-07-08 22:17:00,
2013-07-08 23:23:00,71.4,64.9,30.49,ENE,72,0.0,1.0,80,0.00,,,0.00,meteohub,2013-07-08 22:23:00,
2013-07-08 23:37:00,71.1,64.6,30.48,ENE,72,0.0,1.0,80,0.00,,,0.00,meteohub,2013-07-08 22:37:00,
2013-07-08 23:47:00,70.9,64.4,30.48,ENE,72,0.0,2.0,80,0.00,,,0.00,meteohub,2013-07-08 22:47:00,
2013-07-08 23:55:00,70.5,64.4,30.48,ENE,72,0.0,0.0,81,0.00,,,0.00,meteohub,2013-07-08 22:55:00,